createdAt,value
2017-04-01T04:01:08.075Z,0
2017-04-01T04:01:33.616Z,0
2017-04-01T04:01:59.631Z,0
2017-04-01T04:02:27.102Z,0
2017-04-01T04:02:52.181Z,0
2017-04-01T04:03:18.385Z,0
2017-04-01T04:03:44.160Z,0
2017-04-01T04:04:09.681Z,0
2017-04-01T04:04:35.210Z,0
2017-04-01T04:05:00.761Z,0
2017-04-01T04:05:26.514Z,0
2017-04-01T04:05:52.169Z,0
2017-04-01T04:06:17.823Z,0
2017-04-01T04:06:43.398Z,0
2017-04-01T04:07:08.959Z,0
2017-04-01T04:07:34.530Z,0
2017-04-01T04:08:00.096Z,0
2017-04-01T04:08:25.668Z,0
2017-04-01T04:08:51.237Z,0
2017-04-01T04:09:16.815Z,0
2017-04-01T04:09:42.366Z,0
2017-04-01T04:10:08.028Z,0
2017-04-01T04:10:33.625Z,0
2017-04-01T04:10:59.240Z,0
2017-04-01T04:11:24.910Z,0
2017-04-01T04:11:50.500Z,0
2017-04-01T04:12:16.067Z,0
2017-04-01T04:12:41.618Z,0
2017-04-01T04:13:07.166Z,0
2017-04-01T04:13:32.845Z,0
2017-04-01T04:13:58.399Z,0
2017-04-01T04:14:23.991Z,0
2017-04-01T04:15:27.428Z,0
2017-04-01T04:15:53.017Z,0
2017-04-01T04:16:18.580Z,0
2017-04-01T04:16:44.151Z,0
2017-04-01T04:17:09.826Z,0
2017-04-01T04:17:35.394Z,0
2017-04-01T04:18:00.958Z,0
2017-04-01T04:18:26.624Z,0
2017-04-01T04:18:52.226Z,0
2017-04-01T04:19:17.835Z,0
2017-04-01T04:19:43.396Z,0
2017-04-01T04:20:09.048Z,0
2017-04-01T04:20:34.617Z,0
2017-04-01T04:21:00.189Z,0
2017-04-01T04:21:25.826Z,0
2017-04-01T04:21:51.376Z,0
2017-04-01T04:22:16.954Z,0
2017-04-01T04:22:42.529Z,0
2017-04-01T04:23:08.097Z,0
2017-04-01T04:23:33.655Z,0
2017-04-01T04:23:59.203Z,0
2017-04-01T04:24:24.758Z,0
2017-04-01T04:24:50.331Z,0
2017-04-01T04:25:15.893Z,0
2017-04-01T04:25:41.452Z,0
2017-04-01T04:26:07.006Z,0
2017-04-01T04:26:32.580Z,0
2017-04-01T04:26:58.152Z,0
2017-04-01T04:27:23.762Z,0
2017-04-01T04:27:49.333Z,0
2017-04-01T04:28:14.921Z,0
2017-04-01T04:28:40.552Z,0
2017-04-01T04:29:06.108Z,0
2017-04-01T04:29:31.681Z,0
2017-04-01T04:29:57.249Z,0
2017-04-01T04:30:22.864Z,0
2017-04-01T04:30:48.429Z,0
2017-04-01T04:31:13.982Z,0
2017-04-01T04:31:39.545Z,0
2017-04-01T04:32:05.177Z,0
2017-04-01T04:32:30.813Z,0
2017-04-01T04:32:56.371Z,0
2017-04-01T04:33:21.941Z,0
2017-04-01T04:33:47.517Z,0
2017-04-01T04:34:13.099Z,0
2017-04-01T04:34:38.658Z,0
2017-04-01T04:35:04.270Z,0
2017-04-01T04:35:29.876Z,0
2017-04-01T04:35:55.456Z,0
2017-04-01T04:36:21.007Z,0
2017-04-01T04:36:46.552Z,0
2017-04-01T04:37:12.156Z,0
2017-04-01T04:37:37.771Z,0
2017-04-01T04:38:03.361Z,0
2017-04-01T04:38:28.931Z,0
2017-04-01T04:38:54.552Z,0
2017-04-01T04:39:20.120Z,0
2017-04-01T04:39:45.689Z,0
2017-04-01T04:40:11.261Z,0
2017-04-01T04:40:36.822Z,0
2017-04-01T04:41:02.381Z,0
2017-04-01T04:41:27.951Z,0
2017-04-01T04:41:53.521Z,0
2017-04-01T04:42:19.092Z,0
2017-04-01T04:42:44.746Z,0
2017-04-01T04:43:48.240Z,0
2017-04-01T04:44:13.802Z,0
2017-04-01T04:44:39.361Z,0
2017-04-01T04:45:04.921Z,0
2017-04-01T04:45:30.508Z,0
2017-04-01T04:46:55.141Z,0
2017-04-01T04:47:20.740Z,0
2017-04-01T04:47:46.297Z,0
2017-04-01T04:48:11.861Z,0
2017-04-01T04:48:37.558Z,0
2017-04-01T04:49:03.166Z,0
2017-04-01T04:49:28.741Z,0
2017-04-01T04:49:54.361Z,0
2017-04-01T04:50:19.958Z,0
2017-04-01T04:50:45.530Z,0
2017-04-01T04:51:11.108Z,0
2017-04-01T04:51:36.699Z,0
2017-04-01T04:52:02.239Z,0
2017-04-01T04:52:27.781Z,0
2017-04-01T04:52:53.356Z,0
2017-04-01T04:53:18.918Z,0
2017-04-01T04:53:44.469Z,0
2017-04-01T04:54:10.153Z,0
2017-04-01T04:54:36.311Z,0
2017-04-01T04:55:01.870Z,0
2017-04-01T04:55:27.418Z,0
2017-04-01T04:55:52.951Z,0
2017-04-01T04:56:18.580Z,0
2017-04-01T04:56:44.162Z,0
2017-04-01T04:57:09.728Z,0
2017-04-01T04:57:35.380Z,0
2017-04-01T04:58:01.014Z,0
2017-04-01T04:58:26.577Z,0
2017-04-01T04:58:52.146Z,0
2017-04-01T04:59:17.705Z,0
2017-04-01T04:59:43.277Z,0
2017-04-01T05:00:08.836Z,0
2017-04-01T05:00:34.395Z,0
2017-04-01T05:00:59.951Z,0
2017-04-01T05:01:25.584Z,0
2017-04-01T05:01:51.159Z,0
2017-04-01T05:02:16.714Z,0
2017-04-01T05:02:42.249Z,0
2017-04-01T05:03:07.810Z,0
2017-04-01T05:03:33.372Z,0
2017-04-01T05:03:58.940Z,0
2017-04-01T05:04:24.488Z,0
2017-04-01T05:04:50.029Z,0
2017-04-01T05:05:15.570Z,0
2017-04-01T05:05:41.154Z,0
2017-04-01T05:06:06.909Z,0
2017-04-01T05:06:32.467Z,0
2017-04-01T05:06:58.034Z,0
2017-04-01T05:07:23.590Z,0
2017-04-01T05:08:32.287Z,0
2017-04-01T05:08:57.849Z,0
2017-04-01T05:09:23.502Z,0
2017-04-01T05:09:49.073Z,0
2017-04-01T05:10:14.631Z,0
2017-04-01T05:10:40.203Z,0
2017-04-01T05:11:05.933Z,0
2017-04-01T05:11:31.572Z,0
2017-04-01T05:11:57.128Z,0
2017-04-01T05:12:22.694Z,0
2017-04-01T05:12:48.263Z,0
2017-04-01T05:13:13.819Z,0
2017-04-01T05:13:39.394Z,0
2017-04-01T05:14:04.982Z,0
2017-04-01T05:14:30.542Z,0
2017-04-01T05:14:56.094Z,0
2017-04-01T05:15:21.702Z,0
2017-04-01T05:15:47.301Z,0
2017-04-01T05:16:12.829Z,0
2017-04-01T05:16:38.397Z,0
2017-04-01T05:17:04.030Z,0
2017-04-01T05:17:31.401Z,0
2017-04-01T05:17:56.985Z,0
2017-04-01T05:18:22.548Z,0
2017-04-01T05:18:48.171Z,0
2017-04-01T05:19:13.731Z,0
2017-04-01T05:19:39.305Z,0
2017-04-01T05:20:05.020Z,0
2017-04-01T05:21:08.526Z,0
2017-04-01T05:21:34.133Z,0
2017-04-01T05:21:59.728Z,0
2017-04-01T05:22:25.330Z,0
2017-04-01T05:22:50.888Z,0
2017-04-01T05:23:16.471Z,0
2017-04-01T05:23:42.027Z,0
2017-04-01T05:24:07.649Z,0
2017-04-01T05:24:33.199Z,0
2017-04-01T05:24:58.786Z,0
2017-04-01T05:25:24.338Z,0
2017-04-01T05:25:50.046Z,0
2017-04-01T05:26:15.608Z,0
2017-04-01T05:26:41.183Z,0
2017-04-01T05:27:06.822Z,0
2017-04-01T05:27:32.377Z,0
2017-04-01T05:27:57.928Z,0
2017-04-01T05:28:23.586Z,0
2017-04-01T05:28:49.140Z,0
2017-04-01T05:29:14.715Z,0
2017-04-01T05:29:40.266Z,0
2017-04-01T05:30:05.841Z,0
2017-04-01T05:30:31.415Z,0
2017-04-01T05:30:57.010Z,0
2017-04-01T05:31:22.591Z,0
2017-04-01T05:31:48.151Z,0
2017-04-01T05:32:13.793Z,0
2017-04-01T05:32:39.358Z,0
2017-04-01T05:33:04.911Z,0
2017-04-01T05:33:30.472Z,0
2017-04-01T05:33:56.028Z,0
2017-04-01T05:34:21.660Z,0
2017-04-01T05:34:47.309Z,0
2017-04-01T05:35:12.872Z,0
2017-04-01T05:35:38.441Z,0
2017-04-01T05:36:04.021Z,0
2017-04-01T05:36:29.589Z,0
2017-04-01T05:36:55.147Z,0
2017-04-01T05:37:20.701Z,0
2017-04-01T05:37:46.347Z,0
2017-04-01T05:38:11.909Z,0
2017-04-01T05:38:37.670Z,0
2017-04-01T05:39:03.251Z,0
2017-04-01T05:39:28.828Z,0
2017-04-01T05:39:54.416Z,0
2017-04-01T05:40:19.984Z,0
2017-04-01T05:40:45.552Z,0
2017-04-01T05:41:11.127Z,0
2017-04-01T05:41:36.742Z,0
2017-04-01T05:42:02.294Z,0
2017-04-01T05:42:27.890Z,0
2017-04-01T05:42:53.402Z,0
2017-04-01T05:43:18.973Z,0
2017-04-01T05:43:44.537Z,0
2017-04-01T05:44:10.194Z,0
2017-04-01T05:44:35.878Z,0
2017-04-01T05:45:01.455Z,0
2017-04-01T05:45:27.027Z,0
2017-04-01T05:45:52.603Z,0
2017-04-01T05:46:18.224Z,0
2017-04-01T05:46:43.800Z,4
2017-04-01T05:47:09.354Z,4
2017-04-01T05:47:34.921Z,4
2017-04-01T05:48:00.486Z,4
2017-04-01T05:48:26.124Z,4
2017-04-01T05:48:51.694Z,4
2017-04-01T05:49:17.260Z,4
2017-04-01T05:49:42.832Z,4
2017-04-01T05:50:08.450Z,4
2017-04-01T05:50:34.026Z,4
2017-04-01T05:50:59.593Z,4
2017-04-01T05:51:25.152Z,4
2017-04-01T05:51:50.732Z,4
2017-04-01T05:52:16.300Z,4
2017-04-01T05:52:41.883Z,4
2017-04-01T05:53:07.437Z,4
2017-04-01T05:53:33.022Z,4
2017-04-01T05:53:58.554Z,4
2017-04-01T05:54:24.116Z,4
2017-04-01T05:54:49.647Z,4
2017-04-01T05:55:15.206Z,4
2017-04-01T05:55:40.822Z,4
2017-04-01T05:56:06.458Z,4
2017-04-01T05:56:32.014Z,4
2017-04-01T05:57:40.629Z,0
2017-04-01T05:58:06.199Z,0
2017-04-01T05:58:31.822Z,0
2017-04-01T05:58:57.383Z,0
2017-04-01T05:59:22.958Z,0
2017-04-01T05:59:48.610Z,0
2017-04-01T06:00:14.156Z,0
2017-04-01T06:00:39.719Z,0
2017-04-01T06:01:42.920Z,0
2017-04-01T06:02:08.491Z,0
2017-04-01T06:02:34.174Z,0
2017-04-01T06:02:59.792Z,0
2017-04-01T06:03:25.401Z,0
2017-04-01T06:03:50.975Z,0
2017-04-01T06:04:16.556Z,0
2017-04-01T06:04:42.129Z,0
2017-04-01T06:05:07.702Z,0
2017-04-01T06:05:33.263Z,0
2017-04-01T06:05:58.824Z,0
2017-04-01T06:06:24.396Z,0
2017-04-01T06:06:50.004Z,0
2017-04-01T06:07:15.571Z,0
2017-04-01T06:07:41.161Z,0
2017-04-01T06:08:06.713Z,0
2017-04-01T06:08:32.285Z,0
2017-04-01T06:08:57.845Z,0
2017-04-01T06:09:23.423Z,0
2017-04-01T06:09:48.988Z,0
2017-04-01T06:10:14.540Z,0
2017-04-01T06:10:40.103Z,0
2017-04-01T06:11:05.658Z,0
2017-04-01T06:11:31.223Z,0
2017-04-01T06:11:56.803Z,0
2017-04-01T06:12:22.419Z,0
2017-04-01T06:12:48.120Z,0
2017-04-01T06:13:13.681Z,0
2017-04-01T06:13:39.254Z,0
2017-04-01T06:14:04.966Z,0
2017-04-01T06:14:30.534Z,0
2017-04-01T06:14:56.101Z,0
2017-04-01T06:15:21.767Z,0
2017-04-01T06:15:47.335Z,0
2017-04-01T06:16:12.896Z,0
2017-04-01T06:16:38.500Z,0
2017-04-01T06:17:04.062Z,0
2017-04-01T06:17:29.594Z,0
2017-04-01T06:17:55.129Z,0
2017-04-01T06:18:20.678Z,4
2017-04-01T06:18:46.241Z,4
2017-04-01T06:19:11.801Z,4
2017-04-01T06:19:37.435Z,4
2017-04-01T06:20:03.022Z,4
2017-04-01T06:20:28.681Z,4
2017-04-01T06:20:54.344Z,4
2017-04-01T06:21:19.913Z,4
2017-04-01T06:21:45.550Z,4
2017-04-01T06:22:11.133Z,4
2017-04-01T06:22:36.696Z,4
2017-04-01T06:23:02.242Z,4
2017-04-01T06:23:27.950Z,4
2017-04-01T06:23:53.542Z,4
2017-04-01T06:24:19.101Z,4
2017-04-01T06:25:33.033Z,4
2017-04-01T06:25:58.588Z,4
2017-04-01T06:26:24.160Z,4
2017-04-01T06:26:50.013Z,4
2017-04-01T06:27:15.587Z,4
2017-04-01T06:27:41.302Z,4
2017-04-01T06:28:06.868Z,4
2017-04-01T06:28:32.415Z,4
2017-04-01T06:28:58.084Z,4
2017-04-01T06:29:23.792Z,4
2017-04-01T06:29:49.352Z,4
2017-04-01T06:30:14.901Z,4
2017-04-01T06:30:40.462Z,4
2017-04-01T06:31:06.042Z,4
2017-04-01T06:31:31.660Z,4
2017-04-01T06:31:57.240Z,4
2017-04-01T06:32:22.807Z,4
2017-04-01T06:32:48.445Z,4
2017-04-01T06:33:14.020Z,4
2017-04-01T06:33:39.594Z,4
2017-04-01T06:34:05.153Z,4
2017-04-01T06:34:30.876Z,4
2017-04-01T06:34:56.448Z,4
2017-04-01T06:35:22.002Z,4
2017-04-01T06:35:47.552Z,4
2017-04-01T06:36:13.100Z,4
2017-04-01T06:36:38.662Z,4
2017-04-01T06:37:04.244Z,140
2017-04-01T06:37:29.794Z,156
2017-04-01T06:37:55.349Z,156
2017-04-01T06:38:20.916Z,116
2017-04-01T06:38:46.492Z,156
2017-04-01T06:39:12.045Z,156
2017-04-01T06:39:37.603Z,124
2017-04-01T06:40:03.153Z,200
2017-04-01T06:40:28.819Z,128
2017-04-01T06:40:54.411Z,152
2017-04-01T06:41:19.952Z,168
2017-04-01T06:41:45.587Z,204
2017-04-01T06:42:11.148Z,132
2017-04-01T06:42:36.697Z,144
2017-04-01T06:43:02.346Z,212
2017-04-01T06:43:28.056Z,0
2017-04-01T06:43:53.712Z,0
2017-04-01T06:44:19.281Z,0
2017-04-01T06:44:44.854Z,0
2017-04-01T06:45:10.429Z,0
2017-04-01T06:45:36.011Z,4
2017-04-01T06:46:01.593Z,4
2017-04-01T06:46:27.166Z,4
2017-04-01T06:46:52.723Z,4
2017-04-01T06:47:18.272Z,4
2017-04-01T06:47:43.838Z,4
2017-04-01T06:48:09.393Z,4
2017-04-01T06:48:35.020Z,4
2017-04-01T06:49:00.585Z,4
2017-04-01T06:49:26.153Z,4
2017-04-01T06:49:51.717Z,4
2017-04-01T06:50:17.303Z,4
2017-04-01T06:50:42.861Z,4
2017-04-01T06:51:08.434Z,4
2017-04-01T06:51:34.015Z,4
2017-04-01T06:51:59.582Z,4
2017-04-01T06:52:25.210Z,4
2017-04-01T06:52:50.772Z,4
2017-04-01T06:53:16.335Z,4
2017-04-01T06:53:41.904Z,4
2017-04-01T06:54:07.485Z,4
2017-04-01T06:54:33.034Z,4
2017-04-01T06:54:58.610Z,4
2017-04-01T06:55:24.178Z,4
2017-04-01T06:55:49.794Z,4
2017-04-01T06:56:15.351Z,4
2017-04-01T06:56:40.911Z,4
2017-04-01T06:57:06.500Z,4
2017-04-01T06:57:32.156Z,4
2017-04-01T06:57:57.844Z,4
2017-04-01T06:58:23.413Z,4
2017-04-01T06:58:48.976Z,4
2017-04-01T06:59:14.543Z,4
2017-04-01T06:59:40.101Z,4
2017-04-01T07:00:05.817Z,4
2017-04-01T07:00:31.385Z,4
2017-04-01T07:00:56.950Z,4
2017-04-01T07:01:22.584Z,4
2017-04-01T07:01:48.147Z,4
2017-04-01T07:02:13.702Z,4
2017-04-01T07:02:39.272Z,4
2017-04-01T07:03:04.833Z,4
2017-04-01T07:03:30.403Z,4
2017-04-01T07:03:55.961Z,4
2017-04-01T07:04:21.523Z,4
2017-04-01T07:04:47.096Z,4
2017-04-01T07:05:12.662Z,4
2017-04-01T07:05:38.376Z,4
2017-04-01T07:06:03.937Z,4
2017-04-01T07:06:29.588Z,4
2017-04-01T07:07:52.813Z,4
2017-04-01T07:08:18.402Z,4
2017-04-01T07:08:44.175Z,4
2017-04-01T07:09:09.744Z,4
2017-04-01T07:09:35.382Z,4
2017-04-01T07:10:00.971Z,4
2017-04-01T07:10:26.531Z,4
2017-04-01T07:10:52.397Z,4
2017-04-01T07:11:17.963Z,4
2017-04-01T07:11:44.225Z,4
2017-04-01T07:12:09.985Z,4
2017-04-01T07:12:35.960Z,4
2017-04-01T07:13:01.512Z,4
2017-04-01T07:13:27.220Z,4
2017-04-01T07:13:53.356Z,4
2017-04-01T07:14:18.923Z,4
2017-04-01T07:14:45.123Z,4
2017-04-01T07:15:10.703Z,4
2017-04-01T07:15:36.299Z,4
2017-04-01T07:16:02.533Z,4
2017-04-01T07:16:28.097Z,4
2017-04-01T07:16:54.272Z,4
2017-04-01T07:17:19.846Z,4
2017-04-01T07:17:46.054Z,4
2017-04-01T07:18:11.602Z,4
2017-04-01T07:18:37.166Z,4
2017-04-01T07:19:03.643Z,4
2017-04-01T07:19:29.198Z,4
2017-04-01T07:19:55.182Z,4
2017-04-01T07:20:20.767Z,4
2017-04-01T07:20:46.324Z,4
2017-04-01T07:21:12.566Z,4
2017-04-01T07:21:38.131Z,4
2017-04-01T07:22:04.357Z,4
2017-04-01T07:22:29.934Z,4
2017-04-01T07:22:56.145Z,4
2017-04-01T07:23:21.710Z,4
2017-04-01T07:23:47.378Z,4
2017-04-01T07:24:13.526Z,4
2017-04-01T07:27:08.901Z,8
2017-04-01T07:27:34.449Z,8
2017-04-01T07:28:00.014Z,8
2017-04-01T07:28:25.721Z,8
2017-04-01T07:28:51.342Z,8
2017-04-01T07:29:16.898Z,8
2017-04-01T07:29:42.491Z,8
2017-04-01T07:30:08.139Z,8
2017-04-01T07:30:33.845Z,4
2017-04-01T07:30:59.452Z,4
2017-04-01T07:31:25.009Z,4
2017-04-01T07:31:50.597Z,4
2017-04-01T07:32:16.147Z,4
2017-04-01T07:32:41.761Z,4
2017-04-01T07:33:07.359Z,4
2017-04-01T07:33:32.907Z,4
2017-04-01T07:33:58.451Z,4
2017-04-01T07:34:24.088Z,4
2017-04-01T07:34:49.695Z,4
2017-04-01T07:35:15.238Z,4
2017-04-01T07:35:40.789Z,4
2017-04-01T07:36:06.360Z,4
2017-04-01T07:36:31.874Z,4
2017-04-01T07:36:57.457Z,4
2017-04-01T07:37:23.010Z,4
2017-04-01T07:37:48.681Z,8
2017-04-01T07:38:14.300Z,8
2017-04-01T07:38:39.863Z,8
2017-04-01T07:39:05.467Z,8
2017-04-01T07:39:31.152Z,8
2017-04-01T07:39:56.716Z,8
2017-04-01T07:41:05.361Z,8
2017-04-01T07:41:30.926Z,8
2017-04-01T07:41:56.480Z,8
2017-04-01T07:42:22.018Z,8
2017-04-01T07:42:47.554Z,8
2017-04-01T07:43:13.098Z,8
2017-04-01T07:43:38.648Z,8
2017-04-01T07:44:04.249Z,8
2017-04-01T07:44:29.766Z,8
2017-04-01T07:44:55.319Z,8
2017-04-01T07:45:20.858Z,8
2017-04-01T07:45:46.441Z,8
2017-04-01T07:46:11.994Z,8
2017-04-01T07:46:37.574Z,8
2017-04-01T07:47:03.129Z,8
2017-04-01T07:47:28.689Z,4
2017-04-01T07:47:54.258Z,4
2017-04-01T07:48:19.840Z,4
2017-04-01T07:48:45.420Z,4
2017-04-01T07:49:10.982Z,4
2017-04-01T07:49:36.958Z,4
2017-04-01T07:50:02.545Z,4
2017-04-01T07:50:28.095Z,4
2017-04-01T07:50:53.692Z,4
2017-04-01T07:51:19.254Z,4
2017-04-01T07:51:44.843Z,4
2017-04-01T07:52:10.422Z,4
2017-04-01T07:52:36.011Z,4
2017-04-01T07:53:01.571Z,4
2017-04-01T07:53:27.159Z,4
2017-04-01T07:53:52.815Z,4
2017-04-01T07:54:18.419Z,4
2017-04-01T07:54:43.982Z,4
2017-04-01T07:55:09.550Z,4
2017-04-01T07:55:35.156Z,4
2017-04-01T07:56:00.725Z,4
2017-04-01T07:56:26.258Z,4
2017-04-01T07:56:51.805Z,4
2017-04-01T07:57:17.374Z,4
2017-04-01T07:57:42.949Z,4
2017-04-01T07:58:08.499Z,4
2017-04-01T07:58:34.079Z,4
2017-04-01T07:58:59.642Z,4
2017-04-01T07:59:25.220Z,4
2017-04-01T07:59:50.780Z,4
2017-04-01T08:00:16.381Z,4
2017-04-01T08:00:41.939Z,4
2017-04-01T08:01:07.725Z,4
2017-04-01T08:02:16.370Z,4
2017-04-01T08:02:41.928Z,4
2017-04-01T08:03:55.525Z,4
2017-04-01T08:04:21.116Z,4
2017-04-01T08:04:46.758Z,4
2017-04-01T08:05:12.394Z,4
2017-04-01T08:05:37.956Z,4
2017-04-01T08:06:03.523Z,4
2017-04-01T08:06:29.198Z,4
2017-04-01T08:06:54.785Z,4
2017-04-01T08:07:20.349Z,4
2017-04-01T08:07:45.973Z,4
2017-04-01T08:08:11.618Z,4
2017-04-01T08:08:37.188Z,4
2017-04-01T08:09:02.796Z,4
2017-04-01T08:09:28.540Z,4
2017-04-01T08:09:54.096Z,4
2017-04-01T08:10:19.667Z,4
2017-04-01T08:10:45.221Z,4
2017-04-01T08:11:10.792Z,8
2017-04-01T08:11:36.381Z,8
2017-04-01T08:12:01.969Z,8
2017-04-01T08:12:27.538Z,8
2017-04-01T08:12:53.109Z,8
2017-04-01T08:13:18.675Z,8
2017-04-01T08:13:44.269Z,8
2017-04-01T08:14:09.833Z,8
2017-04-01T08:14:35.392Z,8
2017-04-01T08:15:57.254Z,8
2017-04-01T08:18:01.369Z,8
2017-04-01T08:18:26.981Z,8
2017-04-01T08:18:52.529Z,8
2017-04-01T08:19:18.106Z,8
2017-04-01T08:19:43.681Z,8
2017-04-01T08:20:09.248Z,8
2017-04-01T08:20:34.821Z,8
2017-04-01T08:21:00.382Z,8
2017-04-01T08:21:25.966Z,8
2017-04-01T08:21:51.553Z,8
2017-04-01T08:22:17.109Z,8
2017-04-01T08:22:42.668Z,8
2017-04-01T08:23:08.250Z,8
2017-04-01T08:23:33.840Z,8
2017-04-01T08:23:59.419Z,8
2017-04-01T08:24:24.966Z,8
2017-04-01T08:24:50.531Z,8
2017-04-01T08:25:16.108Z,8
2017-04-01T08:25:41.727Z,4
2017-04-01T08:26:07.300Z,4
2017-04-01T08:26:32.868Z,4
2017-04-01T08:26:58.434Z,4
2017-04-01T08:27:24.021Z,4
2017-04-01T08:27:49.604Z,4
2017-04-01T08:28:15.189Z,4
2017-04-01T08:28:40.749Z,4
2017-04-01T08:29:06.344Z,4
2017-04-01T08:29:31.909Z,4
2017-04-01T08:29:57.510Z,4
2017-04-01T08:30:23.070Z,4
2017-04-01T08:31:47.152Z,4
2017-04-01T08:32:12.706Z,4
2017-04-01T08:32:38.280Z,4
2017-04-01T08:33:03.877Z,4
2017-04-01T08:33:29.465Z,4
2017-04-01T08:33:55.029Z,4
2017-04-01T08:34:20.609Z,4
2017-04-01T08:34:46.168Z,4
2017-04-01T08:35:11.809Z,4
2017-04-01T08:35:37.360Z,4
2017-04-01T08:36:02.950Z,4
2017-04-01T08:36:28.507Z,4
2017-04-01T08:36:54.147Z,4
2017-04-01T08:37:19.755Z,4
2017-04-01T08:37:45.298Z,4
2017-04-01T08:39:10.936Z,8
2017-04-01T08:39:36.522Z,8
2017-04-01T08:40:02.075Z,8
2017-04-01T08:40:27.723Z,8
2017-04-01T08:40:53.331Z,8
2017-04-01T08:41:18.910Z,8
2017-04-01T08:41:44.577Z,8
2017-04-01T08:42:10.215Z,8
2017-04-01T08:42:35.791Z,8
2017-04-01T08:43:01.374Z,8
2017-04-01T08:43:26.985Z,8
2017-04-01T08:43:52.618Z,8
2017-04-01T08:44:18.173Z,8
2017-04-01T08:44:43.816Z,8
2017-04-01T08:45:09.414Z,8
2017-04-01T08:45:34.950Z,8
2017-04-01T08:46:00.512Z,8
2017-04-01T08:46:26.176Z,8
2017-04-01T08:46:51.727Z,8
2017-04-01T08:47:17.268Z,8
2017-04-01T08:47:42.975Z,8
2017-04-01T08:48:08.528Z,8
2017-04-01T08:49:22.534Z,8
2017-04-01T08:49:48.085Z,8
2017-04-01T08:50:13.700Z,8
2017-04-01T08:50:39.278Z,8
2017-04-01T08:51:04.838Z,8
2017-04-01T08:51:30.414Z,8
2017-04-01T08:51:55.979Z,8
2017-04-01T08:52:21.548Z,8
2017-04-01T08:52:47.130Z,8
2017-04-01T08:53:12.692Z,8
2017-04-01T08:53:38.307Z,8
2017-04-01T08:54:03.879Z,8
2017-04-01T08:54:29.458Z,8
2017-04-01T08:54:55.058Z,8
2017-04-01T08:55:20.676Z,8
2017-04-01T08:55:46.250Z,8
2017-04-01T08:56:11.826Z,8
2017-04-01T08:56:37.453Z,8
2017-04-01T08:57:03.041Z,8
2017-04-01T08:57:28.599Z,8
2017-04-01T08:57:54.263Z,8
2017-04-01T08:58:19.871Z,8
2017-04-01T08:58:45.449Z,8
2017-04-01T08:59:11.052Z,8
2017-04-01T08:59:36.737Z,8
2017-04-01T09:00:02.290Z,8
2017-04-01T09:00:27.908Z,8
2017-04-01T09:00:53.493Z,8
2017-04-01T09:01:19.047Z,8
2017-04-01T09:01:44.648Z,8
2017-04-01T09:02:10.240Z,8
2017-04-01T09:02:35.794Z,8
2017-04-01T09:03:01.351Z,8
2017-04-01T09:03:26.947Z,8
2017-04-01T09:03:52.495Z,8
2017-04-01T09:04:18.068Z,8
2017-04-01T09:04:43.694Z,8
2017-04-01T09:05:09.240Z,8
2017-04-01T09:05:34.867Z,8
2017-04-01T09:06:00.490Z,8
2017-04-01T09:06:26.062Z,8
2017-04-01T09:06:51.657Z,8
2017-04-01T09:07:17.222Z,8
2017-04-01T09:07:42.835Z,8
2017-04-01T09:08:08.407Z,8
2017-04-01T09:08:34.078Z,8
2017-04-01T09:08:59.643Z,8
2017-04-01T09:09:25.188Z,8
2017-04-01T09:09:50.853Z,8
2017-04-01T09:10:16.341Z,8
2017-04-01T09:10:41.909Z,8
2017-04-01T09:11:07.457Z,8
2017-04-01T09:11:33.029Z,8
2017-04-01T09:11:58.599Z,8
2017-04-01T09:12:24.167Z,8
2017-04-01T09:12:49.752Z,8
2017-04-01T09:13:15.327Z,8
2017-04-01T09:13:41.030Z,12
2017-04-01T09:14:06.610Z,8
2017-04-01T09:14:32.201Z,8
2017-04-01T09:14:57.790Z,8
2017-04-01T09:15:23.340Z,8
2017-04-01T09:15:48.896Z,8
2017-04-01T09:16:14.469Z,8
2017-04-01T09:16:40.048Z,8
2017-04-01T09:17:05.600Z,8
2017-04-01T09:17:31.231Z,8
2017-04-01T09:17:56.801Z,8
2017-04-01T09:18:22.582Z,8
2017-04-01T09:18:48.141Z,8
2017-04-01T09:19:13.689Z,8
2017-04-01T09:19:39.273Z,8
2017-04-01T09:20:04.866Z,8
2017-04-01T09:20:30.432Z,8
2017-04-01T09:20:55.982Z,8
2017-04-01T09:22:04.586Z,12
2017-04-01T09:22:30.166Z,12
2017-04-01T09:22:55.714Z,12
2017-04-01T09:23:21.295Z,12
2017-04-01T09:23:46.859Z,12
2017-04-01T09:24:12.458Z,8
2017-04-01T09:24:38.014Z,12
2017-04-01T09:25:03.649Z,8
2017-04-01T09:25:29.251Z,8
2017-04-01T09:25:54.817Z,8
2017-04-01T09:26:20.378Z,12
2017-04-01T09:26:45.947Z,8
2017-04-01T09:27:11.549Z,8
2017-04-01T09:27:37.118Z,8
2017-04-01T09:28:02.681Z,8
2017-04-01T09:28:28.354Z,8
2017-04-01T09:28:53.915Z,8
2017-04-01T09:29:19.488Z,8
2017-04-01T09:29:45.120Z,8
2017-04-01T09:30:10.720Z,8
2017-04-01T09:30:36.267Z,8
2017-04-01T09:31:01.861Z,8
2017-04-01T09:31:27.471Z,8
2017-04-01T09:31:53.020Z,8
2017-04-01T09:32:18.599Z,8
2017-04-01T09:32:44.413Z,8
2017-04-01T09:33:09.989Z,12
2017-04-01T09:33:35.564Z,12
2017-04-01T09:34:01.174Z,12
2017-04-01T09:34:26.781Z,8
2017-04-01T09:34:52.336Z,12
2017-04-01T09:35:17.895Z,12
2017-04-01T09:35:43.470Z,12
2017-04-01T09:36:09.058Z,12
2017-04-01T09:36:34.745Z,12
2017-04-01T09:37:00.383Z,8
2017-04-01T09:37:25.945Z,8
2017-04-01T09:37:51.526Z,12
2017-04-01T09:38:17.082Z,12
2017-04-01T09:38:42.671Z,12
2017-04-01T09:39:08.270Z,12
2017-04-01T09:39:33.828Z,12
2017-04-01T09:39:59.551Z,12
2017-04-01T09:40:25.128Z,12
2017-04-01T09:40:50.693Z,12
2017-04-01T09:41:16.253Z,12
2017-04-01T09:41:41.833Z,12
2017-04-01T09:42:07.443Z,12
2017-04-01T09:42:32.988Z,12
2017-04-01T09:42:58.550Z,12
2017-04-01T09:43:24.127Z,12
2017-04-01T09:43:49.677Z,12
2017-04-01T09:44:15.230Z,8
2017-04-01T09:44:40.818Z,8
2017-04-01T09:45:06.548Z,8
2017-04-01T09:45:32.105Z,12
2017-04-01T09:45:57.682Z,12
2017-04-01T09:46:23.358Z,12
2017-04-01T09:46:48.918Z,12
2017-04-01T09:47:14.481Z,12
2017-04-01T09:47:40.150Z,12
2017-04-01T09:48:05.799Z,12
2017-04-01T09:48:31.377Z,12
2017-04-01T09:48:56.931Z,12
2017-04-01T09:49:22.483Z,12
2017-04-01T09:49:48.016Z,12
2017-04-01T09:50:13.586Z,12
2017-04-01T09:50:39.138Z,12
2017-04-01T09:51:04.696Z,12
2017-04-01T09:51:30.332Z,12
2017-04-01T09:51:55.893Z,12
2017-04-01T09:52:21.449Z,12
2017-04-01T09:52:47.013Z,12
2017-04-01T09:53:12.567Z,12
2017-04-01T09:53:38.136Z,12
2017-04-01T09:54:03.780Z,12
2017-04-01T09:54:29.533Z,12
2017-04-01T09:54:55.101Z,12
2017-04-01T09:55:20.663Z,12
2017-04-01T09:55:46.363Z,12
2017-04-01T09:56:11.936Z,12
2017-04-01T09:56:37.509Z,8
2017-04-01T09:57:03.075Z,8
2017-04-01T09:57:28.659Z,8
2017-04-01T09:57:54.239Z,8
2017-04-01T09:58:19.835Z,12
2017-04-01T09:58:45.411Z,8
2017-04-01T09:59:10.988Z,8
2017-04-01T09:59:36.552Z,8
2017-04-01T10:00:02.150Z,8
2017-04-01T10:00:27.707Z,8
2017-04-01T10:00:53.289Z,8
2017-04-01T10:01:18.871Z,8
2017-04-01T10:01:44.450Z,12
2017-04-01T10:02:10.070Z,12
2017-04-01T10:02:35.638Z,12
2017-04-01T10:03:01.193Z,12
2017-04-01T10:03:26.773Z,12
2017-04-01T10:03:52.338Z,12
2017-04-01T10:04:17.930Z,12
2017-04-01T10:04:43.699Z,12
2017-04-01T10:05:09.350Z,12
2017-04-01T10:05:34.899Z,12
2017-04-01T10:06:01.179Z,12
2017-04-01T10:06:26.195Z,12
2017-04-01T10:06:51.779Z,12
2017-04-01T10:07:17.348Z,12
2017-04-01T10:07:42.941Z,12
2017-04-01T10:08:08.519Z,12
2017-04-01T10:08:34.087Z,12
2017-04-01T10:08:59.667Z,12
2017-04-01T10:09:25.249Z,8
2017-04-01T10:09:50.828Z,12
2017-04-01T10:10:16.406Z,12
2017-04-01T10:10:41.987Z,12
2017-04-01T10:11:07.540Z,12
2017-04-01T10:11:33.109Z,12
2017-04-01T10:11:58.691Z,12
2017-04-01T10:12:24.258Z,12
2017-04-01T10:12:49.817Z,12
2017-04-01T10:13:15.385Z,12
2017-04-01T10:13:40.934Z,12
2017-04-01T10:14:06.503Z,12
2017-04-01T10:15:20.237Z,12
2017-04-01T10:15:45.797Z,12
2017-04-01T10:16:11.365Z,12
2017-04-01T10:16:36.935Z,12
2017-04-01T10:17:02.492Z,12
2017-04-01T10:17:28.070Z,12
2017-04-01T10:17:53.729Z,12
2017-04-01T10:18:19.369Z,12
2017-04-01T10:18:44.966Z,16
2017-04-01T10:19:10.480Z,12
2017-04-01T10:19:36.127Z,12
2017-04-01T10:20:01.688Z,12
2017-04-01T10:20:27.244Z,12
2017-04-01T10:20:52.872Z,12
2017-04-01T10:21:18.437Z,12
2017-04-01T10:21:44.045Z,12
2017-04-01T10:22:09.590Z,12
2017-04-01T10:22:35.137Z,12
2017-04-01T10:23:00.702Z,8
2017-04-01T10:23:26.284Z,12
2017-04-01T10:23:51.836Z,12
2017-04-01T10:24:17.380Z,12
2017-04-01T10:24:43.069Z,12
2017-04-01T10:25:08.669Z,12
2017-04-01T10:25:34.251Z,12
2017-04-01T10:25:59.815Z,12
2017-04-01T10:26:25.414Z,12
2017-04-01T10:26:50.993Z,12
2017-04-01T10:27:16.545Z,12
2017-04-01T10:27:42.123Z,12
2017-04-01T10:28:07.673Z,12
2017-04-01T10:28:33.239Z,12
2017-04-01T10:28:58.785Z,16
2017-04-01T10:29:24.368Z,12
2017-04-01T10:29:49.934Z,12
2017-04-01T10:30:15.493Z,12
2017-04-01T10:30:41.045Z,12
2017-04-01T10:31:06.638Z,12
2017-04-01T10:31:32.208Z,8
2017-04-01T10:31:57.763Z,8
2017-04-01T10:32:23.331Z,12
2017-04-01T10:32:48.877Z,12
2017-04-01T10:33:14.428Z,12
2017-04-01T10:33:39.969Z,12
2017-04-01T10:34:05.536Z,12
2017-04-01T10:34:31.146Z,12
2017-04-01T10:34:56.792Z,16
2017-04-01T10:35:22.362Z,12